Time,TemperatureF,DewpointF,PressureIn,WindDirection,WindDirectionDegrees,WindSpeedMPH,WindSpeedGustMPH,Humidity,HourlyPrecipIn,Conditions,Clouds,dailyrainin,SoftwareType,DateUTC
2013-01-20 00:04:00,45.0,26.0,-100.00,SW,235,21.0,31.0,48,0.00,,,-99.99,,2013-01-20 05:04:00,
2013-01-20 00:12:00,45.0,26.0,-100.00,WSW,240,20.0,46.0,48,0.00,,,-99.99,,2013-01-20 05:12:00,
2013-01-20 00:22:00,44.0,27.0,-100.00,SW,235,24.0,33.0,49,0.00,,,-99.99,,2013-01-20 05:22:00,
2013-01-20 00:33:00,44.0,27.0,-100.00,SW,225,19.0,30.0,49,0.00,,,-99.99,,2013-01-20 05:33:00,
2013-01-20 00:42:00,44.0,27.0,-100.00,SW,225,20.0,30.0,50,0.00,,,-99.99,,2013-01-20 05:42:00,
2013-01-20 00:53:00,44.0,27.0,-100.00,SW,225,21.0,30.0,51,0.00,,,-99.99,,2013-01-20 05:53:00,
2013-01-20 01:02:00,44.0,27.0,-100.00,SW,235,23.0,32.0,51,0.00,,,-99.99,,2013-01-20 06:02:00,
2013-01-20 01:12:00,44.0,28.0,-100.00,SW,225,21.0,32.0,52,0.00,,,-99.99,,2013-01-20 06:12:00,
2013-01-20 01:22:00,44.0,28.0,-100.00,SW,225,17.0,30.0,53,0.00,,,-99.99,,2013-01-20 06:22:00,
2013-01-20 01:33:00,44.0,28.0,-100.00,SW,225,19.0,37.0,53,0.00,,,-99.99,,2013-01-20 06:33:00,
2013-01-20 01:42:00,43.0,28.0,-100.00,SW,225,18.0,29.0,55,0.00,,,-99.99,,2013-01-20 06:42:00,
2013-01-20 01:52:00,43.0,28.0,-100.00,SW,230,18.0,30.0,55,0.00,,,-99.99,,2013-01-20 06:52:00,
2013-01-20 02:02:00,43.0,28.0,-100.00,SW,225,20.0,31.0,55,0.00,,,-99.99,,2013-01-20 07:02:00,
2013-01-20 02:12:00,43.0,28.0,-100.00,SW,235,21.0,32.0,55,0.00,,,-99.99,,2013-01-20 07:12:00,
2013-01-20 02:22:00,43.0,29.0,-100.00,SW,225,20.0,32.0,56,0.00,,,-99.99,,2013-01-20 07:22:00,
2013-01-20 02:32:00,43.0,29.0,-100.00,SW,215,21.0,33.0,57,0.00,,,-99.99,,2013-01-20 07:32:00,
2013-01-20 02:42:00,43.0,29.0,-100.00,WSW,240,16.0,27.0,57,0.00,,,-99.99,,2013-01-20 07:42:00,
2013-01-20 02:52:00,43.0,29.0,-100.00,WSW,240,19.0,28.0,58,0.00,,,-99.99,,2013-01-20 07:52:00,
2013-01-20 03:02:00,43.0,29.0,-100.00,SW,235,18.0,32.0,58,0.00,,,-99.99,,2013-01-20 08:02:00,
2013-01-20 03:12:00,43.0,29.0,-100.00,SW,225,22.0,30.0,59,0.00,,,-99.99,,2013-01-20 08:12:00,
2013-01-20 03:22:00,42.0,29.0,-100.00,SW,235,17.0,25.0,60,0.00,,,-99.99,,2013-01-20 08:22:00,
2013-01-20 03:32:00,42.0,29.0,-100.00,SW,230,18.0,27.0,60,0.00,,,-99.99,,2013-01-20 08:32:00,
2013-01-20 03:42:00,42.0,30.0,-100.00,WSW,245,17.0,26.0,62,0.00,,,-99.99,,2013-01-20 08:42:00,
2013-01-20 03:52:00,42.0,30.0,-100.00,WSW,245,16.0,27.0,61,0.00,,,-99.99,,2013-01-20 08:52:00,
2013-01-20 04:02:00,42.0,31.0,-100.00,WSW,255,17.0,26.0,62,0.00,,,-99.99,,2013-01-20 09:02:00,
2013-01-20 04:12:00,43.0,31.0,-100.00,WSW,250,17.0,29.0,63,0.00,,,-99.99,,2013-01-20 09:12:00,
2013-01-20 04:22:00,43.0,31.0,-100.00,West,270,15.0,28.0,64,0.00,,,-99.99,,2013-01-20 09:22:00,
2013-01-20 04:33:00,41.0,29.0,-100.00,West,260,14.0,29.0,61,0.00,,,-99.99,,2013-01-20 09:33:00,
2013-01-20 04:42:00,40.0,29.0,-100.00,WSW,255,12.0,30.0,63,0.00,,,-99.99,,2013-01-20 09:42:00,
2013-01-20 04:52:00,40.0,29.0,-100.00,West,260,19.0,32.0,64,0.00,,,-99.99,,2013-01-20 09:52:00,
2013-01-20 05:02:00,40.0,28.0,-100.00,West,270,14.0,25.0,62,0.00,,,-99.99,,2013-01-20 10:02:00,
2013-01-20 05:12:00,40.0,27.0,-100.00,West,275,11.0,25.0,60,0.00,,,-99.99,,2013-01-20 10:12:00,
2013-01-20 05:22:00,39.0,26.0,-100.00,WSW,255,17.0,30.0,57,0.00,,,-99.99,,2013-01-20 10:22:00,
2013-01-20 05:32:00,39.0,23.0,-100.00,West,265,16.0,31.0,53,0.00,,,-99.99,,2013-01-20 10:32:00,
2013-01-20 05:42:00,38.0,22.0,-100.00,West,275,12.0,25.0,51,0.00,,,-99.99,,2013-01-20 10:42:00,
2013-01-20 05:52:00,38.0,22.0,-100.00,West,275,12.0,24.0,52,0.00,,,-99.99,,2013-01-20 10:52:00,
2013-01-20 06:03:00,37.0,19.0,-100.00,WNW,285,19.0,29.0,47,0.00,,,-99.99,,2013-01-20 11:03:00,
2013-01-20 06:12:00,36.0,17.0,-100.00,West,275,17.0,35.0,44,0.00,,,-99.99,,2013-01-20 11:12:00,
2013-01-20 06:22:00,36.0,16.0,-100.00,West,280,17.0,25.0,44,0.00,,,-99.99,,2013-01-20 11:22:00,
2013-01-20 06:33:00,35.0,16.0,-100.00,West,275,12.0,33.0,45,0.00,,,-99.99,,2013-01-20 11:33:00,
2013-01-20 06:43:00,35.0,17.0,-100.00,West,270,9.0,28.0,48,0.00,,,-99.99,,2013-01-20 11:43:00,
2013-01-20 06:53:00,34.0,19.0,-100.00,West,265,13.0,22.0,53,0.00,,,-99.99,,2013-01-20 11:53:00,
2013-01-20 07:03:00,34.0,20.0,-100.00,West,270,10.0,26.0,56,0.00,,,-99.99,,2013-01-20 12:03:00,
2013-01-20 07:12:00,33.0,20.0,-100.00,WNW,295,11.0,24.0,56,0.00,,,-99.99,,2013-01-20 12:12:00,
2013-01-20 07:23:00,32.0,17.0,-100.00,WNW,295,13.0,32.0,51,0.00,,,-99.99,,2013-01-20 12:23:00,
2013-01-20 07:33:00,31.0,15.0,-100.00,WNW,295,17.0,25.0,51,0.00,,,-99.99,,2013-01-20 12:33:00,
2013-01-20 07:43:00,31.0,15.0,-100.00,WNW,295,10.0,22.0,52,0.00,,,-99.99,,2013-01-20 12:43:00,
2013-01-20 07:52:00,30.0,15.0,-100.00,WNW,300,16.0,27.0,52,0.00,,,-99.99,,2013-01-20 12:52:00,
2013-01-20 08:03:00,30.0,15.0,-100.00,WNW,300,13.0,22.0,54,0.00,,,-99.99,,2013-01-20 13:03:00,
2013-01-20 08:12:00,29.0,15.0,-100.00,West,280,9.0,20.0,56,0.00,,,-99.99,,2013-01-20 13:12:00,
2013-01-20 08:23:00,29.0,14.0,-100.00,WNW,285,14.0,23.0,54,0.00,,,-99.99,,2013-01-20 13:23:00,
2013-01-20 08:33:00,28.0,14.0,-100.00,WNW,290,11.0,18.0,55,0.00,,,-99.99,,2013-01-20 13:33:00,
2013-01-20 08:43:00,28.0,13.0,-100.00,WNW,295,12.0,24.0,54,0.00,,,-99.99,,2013-01-20 13:43:00,
2013-01-20 08:52:00,27.0,13.0,-100.00,NW,310,11.0,23.0,54,0.00,,,-99.99,,2013-01-20 13:52:00,
2013-01-20 09:02:00,27.0,13.0,-100.00,WNW,290,14.0,31.0,55,0.00,,,-99.99,,2013-01-20 14:02:00,
2013-01-20 09:12:00,27.0,13.0,-100.00,West,270,12.0,28.0,55,0.00,,,-99.99,,2013-01-20 14:12:00,
2013-01-20 09:23:00,27.0,13.0,-100.00,WNW,285,16.0,25.0,56,0.00,,,-99.99,,2013-01-20 14:23:00,
2013-01-20 09:33:00,27.0,13.0,-100.00,WNW,300,13.0,22.0,56,0.00,,,-99.99,,2013-01-20 14:33:00,
2013-01-20 09:43:00,27.0,13.0,-100.00,WNW,290,12.0,24.0,56,0.00,,,-99.99,,2013-01-20 14:43:00,
2013-01-20 09:53:00,27.0,13.0,-100.00,West,270,13.0,25.0,55,0.00,,,-99.99,,2013-01-20 14:53:00,
2013-01-20 10:03:00,27.0,13.0,-100.00,West,260,12.0,25.0,55,0.00,,,-99.99,,2013-01-20 15:03:00,
2013-01-20 10:12:00,27.0,13.0,-100.00,West,275,11.0,26.0,55,0.00,,,-99.99,,2013-01-20 15:12:00,
2013-01-20 10:23:00,27.0,13.0,-100.00,West,280,9.0,21.0,56,0.00,,,-99.99,,2013-01-20 15:23:00,
2013-01-20 10:33:00,27.0,13.0,-100.00,West,265,13.0,23.0,56,0.00,,,-99.99,,2013-01-20 15:33:00,
2013-01-20 10:42:00,27.0,13.0,-100.00,WNW,300,16.0,22.0,56,0.00,,,-99.99,,2013-01-20 15:42:00,
2013-01-20 10:53:00,26.0,13.0,-100.00,WNW,285,13.0,22.0,57,0.00,,,-99.99,,2013-01-20 15:53:00,
2013-01-20 11:03:00,27.0,12.0,-100.00,West,280,14.0,27.0,54,0.00,,,-99.99,,2013-01-20 16:03:00,
2013-01-20 11:12:00,27.0,12.0,-100.00,WNW,295,12.0,25.0,53,0.00,,,-99.99,,2013-01-20 16:12:00,
2013-01-20 11:23:00,28.0,12.0,-100.00,NW,310,11.0,19.0,50,0.00,,,-99.99,,2013-01-20 16:23:00,
2013-01-20 11:33:00,28.0,12.0,-100.00,WNW,285,11.0,18.0,50,0.00,,,-99.99,,2013-01-20 16:33:00,
2013-01-20 11:43:00,27.0,11.0,-100.00,NW,305,13.0,25.0,52,0.00,,,-99.99,,2013-01-20 16:43:00,
2013-01-20 11:52:00,27.0,12.0,-100.00,NW,310,13.0,22.0,52,0.00,,,-99.99,,2013-01-20 16:52:00,
2013-01-20 12:03:00,27.0,10.0,-100.00,WNW,285,12.0,25.0,49,0.00,,,-99.99,,2013-01-20 17:03:00,
2013-01-20 12:13:00,27.0,10.0,-100.00,NW,305,15.0,24.0,49,0.00,,,-99.99,,2013-01-20 17:13:00,
2013-01-20 12:22:00,27.0,10.0,-100.00,NW,305,15.0,24.0,49,0.00,,,-99.99,,2013-01-20 17:22:00,
2013-01-20 12:33:00,28.0,12.0,-100.00,WNW,300,12.0,19.0,51,0.00,,,-99.99,,2013-01-20 17:33:00,
2013-01-20 12:42:00,27.0,11.0,-100.00,NW,310,22.0,29.0,52,0.00,,,-99.99,,2013-01-20 17:42:00,
2013-01-20 12:52:00,27.0,12.0,-100.00,WNW,300,12.0,27.0,51,0.00,,,-99.99,,2013-01-20 17:52:00,
2013-01-20 13:03:00,26.0,11.0,-100.00,WNW,300,16.0,21.0,52,0.00,,,-99.99,,2013-01-20 18:03:00,
2013-01-20 13:13:00,27.0,12.0,-100.00,WNW,300,11.0,21.0,53,0.00,,,-99.99,,2013-01-20 18:13:00,
2013-01-20 13:23:00,27.0,12.0,-100.00,WNW,300,12.0,18.0,53,0.00,,,-99.99,,2013-01-20 18:23:00,
2013-01-20 13:33:00,26.0,12.0,-100.00,WNW,285,12.0,19.0,55,0.00,,,-99.99,,2013-01-20 18:33:00,
2013-01-20 13:43:00,26.0,12.0,-100.00,West,280,10.0,18.0,55,0.00,,,-99.99,,2013-01-20 18:43:00,
2013-01-20 13:53:00,25.0,12.0,-100.00,WNW,295,13.0,19.0,57,0.00,,,-99.99,,2013-01-20 18:53:00,
2013-01-20 14:03:00,26.0,13.0,-100.00,WNW,290,10.0,19.0,56,0.00,,,-99.99,,2013-01-20 19:03:00,
2013-01-20 14:12:00,26.0,13.0,-100.00,NW,315,13.0,19.0,58,0.00,,,-99.99,,2013-01-20 19:12:00,
2013-01-20 14:22:00,26.0,13.0,-100.00,West,265,9.0,17.0,58,0.00,,,-99.99,,2013-01-20 19:22:00,
2013-01-20 14:33:00,26.0,12.0,-100.00,WNW,295,10.0,14.0,56,0.00,,,-99.99,,2013-01-20 19:33:00,
2013-01-20 14:43:00,26.0,12.0,-100.00,WNW,300,11.0,18.0,56,0.00,,,-99.99,,2013-01-20 19:43:00,
2013-01-20 14:52:00,26.0,12.0,-100.00,WSW,245,7.0,16.0,56,0.00,,,-99.99,,2013-01-20 19:52:00,
2013-01-20 15:03:00,26.0,12.0,-100.00,WNW,300,9.0,16.0,55,0.00,,,-99.99,,2013-01-20 20:03:00,
2013-01-20 15:12:00,26.0,12.0,-100.00,NW,310,12.0,16.0,54,0.00,,,-99.99,,2013-01-20 20:12:00,
2013-01-20 15:23:00,26.0,12.0,-100.00,West,275,9.0,19.0,55,0.00,,,-99.99,,2013-01-20 20:23:00,
2013-01-20 15:33:00,26.0,12.0,-100.00,WNW,290,8.0,14.0,55,0.00,,,-99.99,,2013-01-20 20:33:00,
2013-01-20 15:42:00,26.0,11.0,-100.00,West,270,7.0,16.0,52,0.00,,,-99.99,,2013-01-20 20:42:00,
2013-01-20 15:53:00,27.0,12.0,-100.00,West,265,6.0,13.0,54,0.00,,,-99.99,,2013-01-20 20:53:00,
2013-01-20 16:04:00,26.0,11.0,-100.00,West,280,7.0,16.0,54,0.00,,,-99.99,,2013-01-20 21:04:00,
2013-01-20 16:13:00,26.0,11.0,-100.00,West,280,9.0,16.0,52,0.00,,,-99.99,,2013-01-20 21:13:00,
2013-01-20 16:23:00,26.0,11.0,-100.00,WNW,285,7.0,16.0,53,0.00,,,-99.99,,2013-01-20 21:23:00,
2013-01-20 16:33:00,26.0,12.0,-100.00,WNW,290,9.0,15.0,55,0.00,,,-99.99,,2013-01-20 21:33:00,
2013-01-20 16:43:00,25.0,12.0,-100.00,West,270,6.0,13.0,55,0.00,,,-99.99,,2013-01-20 21:43:00,
2013-01-20 16:53:00,26.0,12.0,-100.00,NW,305,6.0,12.0,55,0.00,,,-99.99,,2013-01-20 21:53:00,
2013-01-20 17:03:00,26.0,12.0,-100.00,NW,305,6.0,12.0,55,0.00,,,-99.99,,2013-01-20 22:03:00,
2013-01-20 17:13:00,25.0,11.0,-100.00,WNW,290,11.0,16.0,54,0.00,,,-99.99,,2013-01-20 22:13:00,
2013-01-20 17:23:00,25.0,11.0,-100.00,WNW,290,11.0,16.0,54,0.00,,,-99.99,,2013-01-20 22:23:00,
2013-01-20 17:33:00,24.0,11.0,-100.00,WNW,285,9.0,18.0,58,0.00,,,-99.99,,2013-01-20 22:33:00,
2013-01-20 17:43:00,24.0,12.0,-100.00,WNW,300,12.0,16.0,59,0.00,,,-99.99,,2013-01-20 22:43:00,
2013-01-20 17:52:00,24.0,11.0,-100.00,WNW,290,9.0,16.0,59,0.00,,,-99.99,,2013-01-20 22:52:00,
2013-01-20 18:03:00,23.0,11.0,-100.00,WNW,285,7.0,16.0,58,0.00,,,-99.99,,2013-01-20 23:03:00,
2013-01-20 18:13:00,23.0,11.0,-100.00,West,275,7.0,17.0,58,0.00,,,-99.99,,2013-01-20 23:13:00,
2013-01-20 18:23:00,23.0,11.0,-100.00,WNW,295,6.0,10.0,59,0.00,,,-99.99,,2013-01-20 23:23:00,
2013-01-20 18:33:00,23.0,11.0,-100.00,WNW,285,4.0,10.0,60,0.00,,,-99.99,,2013-01-20 23:33:00,
2013-01-20 18:43:00,23.0,11.0,-100.00,West,280,6.0,9.0,60,0.00,,,-99.99,,2013-01-20 23:43:00,
2013-01-20 18:53:00,23.0,11.0,-100.00,West,275,4.0,9.0,61,0.00,,,-99.99,,2013-01-20 23:53:00,
2013-01-20 19:03:00,22.0,11.0,-100.00,West,275,4.0,8.0,62,0.00,,,-99.99,,2013-01-21 00:03:00,
2013-01-20 19:13:00,22.0,11.0,-100.00,West,275,5.0,8.0,62,0.00,,,-99.99,,2013-01-21 00:13:00,
2013-01-20 19:23:00,22.0,11.0,-100.00,WNW,295,4.0,7.0,63,0.00,,,-99.99,,2013-01-21 00:23:00,
2013-01-20 19:33:00,22.0,12.0,-100.00,West,275,3.0,7.0,64,0.00,,,-99.99,,2013-01-21 00:33:00,
2013-01-20 19:43:00,22.0,12.0,-100.00,WNW,285,4.0,7.0,64,0.00,,,-99.99,,2013-01-21 00:43:00,
2013-01-20 19:53:00,22.0,12.0,-100.00,WNW,290,4.0,6.0,64,0.00,,,-99.99,,2013-01-21 00:53:00,
2013-01-20 20:03:00,22.0,12.0,-100.00,West,280,4.0,6.0,65,0.00,,,-99.99,,2013-01-21 01:03:00,
2013-01-20 20:13:00,22.0,12.0,-100.00,WNW,300,5.0,7.0,65,0.00,,,-99.99,,2013-01-21 01:13:00,
2013-01-20 20:23:00,22.0,12.0,-100.00,West,280,6.0,9.0,63,0.00,,,-99.99,,2013-01-21 01:23:00,
2013-01-20 20:33:00,22.0,12.0,-100.00,West,280,6.0,9.0,64,0.00,,,-99.99,,2013-01-21 01:33:00,
2013-01-20 20:43:00,22.0,12.0,-100.00,West,275,6.0,11.0,64,0.00,,,-99.99,,2013-01-21 01:43:00,
2013-01-20 20:53:00,22.0,12.0,-100.00,West,280,6.0,12.0,64,0.00,,,-99.99,,2013-01-21 01:53:00,
2013-01-20 21:03:00,22.0,11.0,-100.00,West,275,6.0,13.0,63,0.00,,,-99.99,,2013-01-21 02:03:00,
2013-01-20 21:12:00,22.0,12.0,-100.00,WNW,300,5.0,11.0,63,0.00,,,-99.99,,2013-01-21 02:12:00,
2013-01-20 21:23:00,22.0,11.0,-100.00,WNW,290,6.0,12.0,62,0.00,,,-99.99,,2013-01-21 02:23:00,
2013-01-20 21:33:00,22.0,12.0,-100.00,NW,305,4.0,11.0,64,0.00,,,-99.99,,2013-01-21 02:33:00,
2013-01-20 21:43:00,22.0,12.0,-100.00,WNW,300,4.0,9.0,65,0.00,,,-99.99,,2013-01-21 02:43:00,
2013-01-20 21:53:00,22.0,11.0,-100.00,WNW,290,7.0,11.0,62,0.00,,,-99.99,,2013-01-21 02:53:00,
2013-01-20 22:03:00,22.0,11.0,-100.00,WNW,285,6.0,9.0,63,0.00,,,-99.99,,2013-01-21 03:03:00,
2013-01-20 22:13:00,22.0,11.0,-100.00,West,280,6.0,9.0,62,0.00,,,-99.99,,2013-01-21 03:13:00,
2013-01-20 22:23:00,22.0,11.0,-100.00,WNW,290,9.0,12.0,62,0.00,,,-99.99,,2013-01-21 03:23:00,
2013-01-20 22:33:00,22.0,11.0,-100.00,WNW,300,4.0,10.0,63,0.00,,,-99.99,,2013-01-21 03:33:00,
2013-01-20 22:43:00,22.0,12.0,-100.00,NW,305,4.0,8.0,64,0.00,,,-99.99,,2013-01-21 03:43:00,
2013-01-20 22:53:00,22.0,12.0,-100.00,West,270,6.0,9.0,64,0.00,,,-99.99,,2013-01-21 03:53:00,
2013-01-20 23:03:00,22.0,12.0,-100.00,WNW,295,6.0,8.0,64,0.00,,,-99.99,,2013-01-21 04:03:00,
2013-01-20 23:12:00,22.0,12.0,-100.00,WNW,300,4.0,7.0,65,0.00,,,-99.99,,2013-01-21 04:12:00,
2013-01-20 23:23:00,22.0,12.0,-100.00,WNW,295,7.0,11.0,64,0.00,,,-99.99,,2013-01-21 04:23:00,
2013-01-20 23:33:00,22.0,12.0,-100.00,West,270,7.0,12.0,64,0.00,,,-99.99,,2013-01-21 04:33:00,
2013-01-20 23:43:00,22.0,12.0,-100.00,WNW,295,6.0,12.0,64,0.00,,,-99.99,,2013-01-21 04:43:00,
2013-01-20 23:53:00,22.0,12.0,-100.00,WNW,290,4.0,8.0,65,0.00,,,-99.99,,2013-01-21 04:53:00,